logo
Search for airport 
image banner adimage banner adimage banner ad
image banner ad

FARZ - Reitz

Located in Maasstroom, South Africa

ICAO - FARZ, IATA -

Data provided by Airmate  

General information

Coordinates: S27°47'3" E28°25'47"
Elevation is 5331 feet MSL.
 
View others Airports in Limpopo

Operational data

Special qualification required
Current time UTC:
Current local time:
Weather at : - ( 0 km )
METAR: UUOK 171933Z AUTO 22004MPS 9999 // ///008/// 19/18 Q1009 RMK QFE739/0985
View NOTAMs / SUP AIP / TFR affecting this airport [VIEW]
Communications frequencies: [VIEW]

Runways:

RWY identifierQFULength (ft)Width (ft)SurfaceLDA (ft)
1169°360998SAND
29249°360998SAND

Airport contact information

Address: Maasstroom South Africa

Satellite view of FARZ